Meteorología y climatología de Navarra
Datos de la estación - Meteo Navarra

Estación de Estella GN

Altitud 486 m.


Datos desde el 11/01/2019 hasta el 12/01/2019 en horario solar
Los datos son PROVISIONALES

Anterior Página 1 de 1 Siguiente Descargar: Formato para Excel 2000 o superior   Formato csv   Formato para OpenOffice Calc
Fecha Temperatura Humedad relativa Radiación global Insolación Precipitación Velocidad viento 10 m Velocidad viento 10 m Dirección viento 10 m
ºC % W/m² s l/m² m/s km/h º
11/01/2019 0:00 0.8 66 0.0 0 0.0 1.8 6.5 322
11/01/2019 0:10 0.8 66 0.0 0 0.0 1.9 6.8 319
11/01/2019 0:20 0.7 67 0.0 0 0.0 1.6 5.9 307
11/01/2019 0:30 0.7 67 0.0 0 0.0 1.7 6.2 321
11/01/2019 0:40 0.7 66 0.0 0 0.0 1.6 5.8 341
11/01/2019 0:50 0.5 67 0.0 0 0.0 1.2 4.2 355
11/01/2019 1:00 0.6 66 0.0 0 0.0 2.2 7.8 322
11/01/2019 1:10 0.6 65 0.0 0 0.0 1.4 5.0 336
11/01/2019 1:20 0.6 64 0.0 0 0.0 1.8 6.6 327
11/01/2019 1:30 0.6 64 0.0 0 0.0 1.1 4.1 308
11/01/2019 1:40 0.4 65 0.0 0 0.0 1.3 4.8 324
11/01/2019 1:50 0.4 65 0.0 0 0.0 0.9 3.3 297
11/01/2019 2:00 0.1 67 0.0 0 0.0 0.6 2.1 274
11/01/2019 2:10 -0.1 68 0.0 0 0.0 0.7 2.5 343
11/01/2019 2:20 -0.4 69 0.0 0 0.0 0.9 3.2 293
11/01/2019 2:30 -0.5 70 0.0 0 0.0 0.7 2.6 330
11/01/2019 2:40 -0.5 69 0.0 0 0.0 1.2 4.5 314
11/01/2019 2:50 -0.4 69 0.0 0 0.0 1.2 4.3 311
11/01/2019 3:00 -0.6 69 0.0 0 0.0 0.9 3.4 336
11/01/2019 3:10 -0.6 69 0.0 0 0.0 1.0 3.7 324
11/01/2019 3:20 -0.6 69 0.0 0 0.0 0.9 3.4 328
11/01/2019 3:30 -0.7 69 0.0 0 0.0 1.1 3.8 331
11/01/2019 3:40 -0.5 68 0.0 0 0.0 1.5 5.5 331
11/01/2019 3:50 -0.4 68 0.0 0 0.0 1.7 5.9 330
11/01/2019 4:00 -0.3 68 0.0 0 0.0 1.9 6.7 319
11/01/2019 4:10 -0.3 68 0.0 0 0.0 1.3 4.8 314
11/01/2019 4:20 -0.4 69 0.0 0 0.0 1.3 4.6 331
11/01/2019 4:30 -0.4 68 0.0 0 0.0 2.0 7.2 320
11/01/2019 4:40 -0.3 68 0.0 0 0.0 1.9 6.7 329
11/01/2019 4:50 -0.3 69 0.0 0 0.0 1.7 6.2 328
11/01/2019 5:00 -0.3 69 0.0 0 0.0 1.7 6.2 336
11/01/2019 5:10 -0.4 69 0.0 0 0.0 1.5 5.5 336
11/01/2019 5:20 -0.4 69 0.0 0 0.0 1.4 5.0 332
11/01/2019 5:30 -0.5 70 0.0 0 0.0 1.5 5.5 343
11/01/2019 5:40 -0.4 69 0.0 0 0.0 1.8 6.4 346
11/01/2019 5:50 -0.4 69 0.0 0 0.0 1.9 6.9 351
11/01/2019 6:00 -0.3 68 0.0 0 0.0 2.0 7.3 350
11/01/2019 6:10 -0.3 68 0.0 0 0.0 1.9 6.9 350
11/01/2019 6:20 -0.2 68 0.0 0 0.0 2.1 7.5 357
11/01/2019 6:30 -0.2 67 0.0 0 0.0 1.9 6.9 356
11/01/2019 6:40 -0.2 67 0.0 0 0.0 1.7 6.2 345
11/01/2019 6:50 -0.2 68 0.0 0 0.0 2.1 7.6 338
11/01/2019 7:00 -0.2 68 0.0 0 0.0 1.7 6.0 330
11/01/2019 7:10 -0.2 68 0.0 0 0.0 1.9 6.7 340
11/01/2019 7:20 -0.3 69 0.0 0 0.0 1.9 6.8 348
11/01/2019 7:30 -0.3 69 0.0 0 0.0 1.8 6.5 347
11/01/2019 7:40 -0.1 68 0.0 0 0.0 1.8 6.4 350
11/01/2019 7:50 0.0 67 0.0 0 0.0 2.2 8.1 0
11/01/2019 8:00 0.0 66 0.0 0 0.0 1.9 6.9 8
11/01/2019 8:10 0.0 66 12.0 0 0.0 2.1 7.7 13
11/01/2019 8:20 0.3 65 20.3 0 0.0 2.3 8.1 19
11/01/2019 8:30 0.3 64 34.8 10 0.0 1.9 6.9 26
11/01/2019 8:40 0.6 63 104.0 546 0.0 2.0 7.2 13
11/01/2019 8:50 1.2 61 131.5 600 0.0 2.6 9.3 6
11/01/2019 9:00 1.7 59 151.8 600 0.0 2.1 7.5 356
11/01/2019 9:10 2.0 57 177.6 600 0.0 2.3 8.2 358
11/01/2019 9:20 2.3 54 206.0 600 0.0 2.0 7.0 4
11/01/2019 9:30 2.7 55 228.3 600 0.0 1.8 6.6 357
11/01/2019 9:40 3.0 52 248.1 600 0.0 1.9 6.8 347
11/01/2019 9:50 3.2 52 273.5 600 0.0 1.9 6.8 7
11/01/2019 10:00 3.6 52 296.3 600 0.0 1.3 4.8 318
11/01/2019 10:10 3.7 52 314.9 600 0.0 1.4 4.9 304
11/01/2019 10:20 4.2 49 333.8 600 0.0 1.4 5.0 308
11/01/2019 10:30 3.9 50 355.7 600 0.0 2.1 7.5 289
11/01/2019 10:40 4.0 48 238.5 296 0.0 1.9 6.8 288
11/01/2019 10:50 3.5 49 211.3 232 0.0 1.4 5.1 275
11/01/2019 11:00 3.4 48 104.8 16 0.0 1.2 4.2 283
11/01/2019 11:10 3.5 49 342.3 426 0.0 1.7 5.9 273
11/01/2019 11:20 4.9 45 441.8 590 0.0 1.9 6.7 308
11/01/2019 11:30 5.4 43 445.6 600 0.0 1.5 5.5 295
11/01/2019 11:40 5.4 42 446.6 600 0.0 2.0 7.0 291
11/01/2019 11:50 5.7 41 449.0 600 0.0 2.1 7.5 317
11/01/2019 12:00 5.7 40 453.0 600 0.0 2.4 8.6 319
11/01/2019 12:10 5.7 40 453.4 600 0.0 2.2 7.8 291
11/01/2019 12:20 5.9 39 456.2 600 0.0 1.8 6.4 3
11/01/2019 12:30 6.2 38 458.5 600 0.0 1.4 5.0 289
11/01/2019 12:40 6.3 39 403.9 524 0.0 1.1 3.9 295
11/01/2019 12:50 6.4 40 434.0 580 0.0 1.8 6.5 296
11/01/2019 13:00 6.8 39 441.2 600 0.0 1.9 6.7 18
11/01/2019 13:10 6.3 41 421.1 592 0.0 1.8 6.6 348
11/01/2019 13:20 6.8 41 415.3 584 0.0 2.3 8.2 316
11/01/2019 13:30 6.6 41 406.5 592 0.0 1.4 5.2 3
11/01/2019 13:40 6.3 43 249.9 326 0.0 1.6 5.9 27
11/01/2019 13:50 5.9 46 220.0 274 0.0 1.4 4.9 318
11/01/2019 14:00 5.6 47 262.3 368 0.0 1.8 6.6 331
11/01/2019 14:10 6.3 46 311.9 490 0.0 1.7 6.2 316
11/01/2019 14:20 6.3 46 344.2 600 0.0 1.9 6.8 314
11/01/2019 14:30 6.4 46 325.0 600 0.0 2.1 7.4 337
11/01/2019 14:40 6.5 46 304.5 600 0.0 1.8 6.6 316
11/01/2019 14:50 6.3 46 292.4 600 0.0 2.5 8.8 336
11/01/2019 15:00 6.3 47 270.1 600 0.0 1.7 6.2 321
11/01/2019 15:10 6.1 46 182.3 382 0.0 2.1 7.7 321
11/01/2019 15:20 5.4 48 185.8 494 0.0 1.6 5.8 300
11/01/2019 15:30 5.7 47 189.6 600 0.0 2.0 7.0 304
11/01/2019 15:40 5.7 48 188.2 600 0.0 1.9 6.9 274
11/01/2019 15:50 5.7 49 177.6 600 0.0 1.6 5.7 283
11/01/2019 16:00 5.6 50 146.2 600 0.0 1.7 6.2 291
11/01/2019 16:10 5.2 51 102.4 600 0.0 2.0 7.1 290
11/01/2019 16:20 4.7 53 56.6 486 0.0 2.2 7.8 273
11/01/2019 16:30 4.4 54 37.1 290 0.0 1.6 5.7 262
11/01/2019 16:40 3.9 56 4.9 0 0.0 2.0 7.1 284
11/01/2019 16:50 3.4 59 0.0 0 0.0 1.6 5.9 283
11/01/2019 17:00 3.3 59 0.0 0 0.0 1.8 6.6 273
11/01/2019 17:10 3.2 60 0.0 0 0.0 2.3 8.2 279
11/01/2019 17:20 3.1 61 0.0 0 0.0 1.7 6.3 285
11/01/2019 17:30 3.0 62 0.0 0 0.0 1.9 6.7 286
11/01/2019 17:40 2.9 62 0.0 0 0.0 1.3 4.6 303
11/01/2019 17:50 2.5 64 0.0 0 0.0 0.8 3.0 323
11/01/2019 18:00 2.5 64 0.0 0 0.0 1.5 5.2 301
11/01/2019 18:10 2.5 64 0.0 0 0.0 1.6 5.6 284
11/01/2019 18:20 2.6 64 0.0 0 0.0 1.7 6.0 323
11/01/2019 18:30 2.5 65 0.0 0 0.0 1.3 4.6 314
11/01/2019 18:40 2.3 66 0.0 0 0.0 0.9 3.2 337
11/01/2019 18:50 2.1 67 0.0 0 0.0 1.0 3.7 317
11/01/2019 19:00 2.3 66 0.0 0 0.0 1.2 4.5 297
11/01/2019 19:10 2.3 66 0.0 0 0.0 1.6 5.6 305
11/01/2019 19:20 2.4 66 0.0 0 0.0 1.2 4.4 322
11/01/2019 19:30 2.3 67 0.0 0 0.0 1.2 4.4 337
11/01/2019 19:40 2.4 68 0.0 0 0.0 1.8 6.4 343
11/01/2019 19:50 2.4 68 0.0 0 0.0 1.3 4.7 343
11/01/2019 20:00 2.3 69 0.0 0 0.0 1.4 5.0 334
11/01/2019 20:10 2.3 70 0.0 0 0.0 1.5 5.3 320
11/01/2019 20:20 2.4 70 0.0 0 0.0 1.4 5.0 5
11/01/2019 20:30 2.4 71 0.0 0 0.0 1.4 4.9 289
11/01/2019 20:40 2.3 72 0.0 0 0.0 1.3 4.6 309
11/01/2019 20:50 2.3 74 0.0 0 0.0 1.1 4.0 297
11/01/2019 21:00 2.3 74 0.0 0 0.0 1.1 4.0 301
11/01/2019 21:10 2.3 74 0.0 0 0.0 1.1 3.8 352
11/01/2019 21:20 2.1 75 0.0 0 0.0 1.1 3.8 11
11/01/2019 21:30 2.4 75 0.0 0 0.0 1.1 4.0 349
11/01/2019 21:40 2.7 75 0.0 0 0.0 0.9 3.2 318
11/01/2019 21:50 2.6 75 0.0 0 0.0 1.4 5.2 335
11/01/2019 22:00 2.4 76 0.0 0 0.0 0.7 2.6 315
11/01/2019 22:10 2.5 77 0.0 0 0.0 1.1 4.0 268
11/01/2019 22:20 2.8 76 0.0 0 0.0 1.3 4.7 252
11/01/2019 22:30 2.8 77 0.0 0 0.0 1.1 4.1 279
11/01/2019 22:40 2.6 77 0.0 0 0.0 1.0 3.7 321
11/01/2019 22:50 2.7 78 0.0 0 0.0 1.1 3.8 282
11/01/2019 23:00 3.1 77 0.0 0 0.0 1.9 6.7 263
11/01/2019 23:10 3.1 78 0.0 0 0.0 2.0 7.1 256
11/01/2019 23:20 2.9 78 0.0 0 0.0 1.0 3.6 266
11/01/2019 23:30 2.9 78 0.0 0 0.0 1.2 4.4 284
11/01/2019 23:40 3.0 78 0.0 0 0.0 1.0 3.6 287
11/01/2019 23:50 2.9 78 0.0 0 0.0 0.8 3.0 265
Anterior Página 1 de 1 Siguiente

NOTA: Tipo de datos según el color:
   - Valores diarios o 10 minutos correctos
   - Valores diarios calculados a partir de un número de datos 10 minutos menor que 144 y mayor que 120, o de un número de datos semihorarios menor que 48 y mayor que 40 (caso de las estaciones de Riegos de Navarra y del MARM)
   - Valores diez minutos estimados


Contacto        Enlaces        Aviso legal